Data for 01/23/2014

Time Sea-Level Adjusted Pressure Absolute Pressure Temperature Relative Humidity Dew Point   
(mb) (inHg) (mb) (inHg) (C) (F) (%) (C) (F)
00:05 1027 30.33 856 25.28 -3.9 24.9 81 -6.8 19.8
00:10 1027 30.33 856 25.28 -4.1 24.7 81 -6.9 19.5
00:15 1027 30.33 856 25.28 -4.1 24.5 80 -7 19.3
00:20 1027 30.33 857 25.31 -4.3 24.3 80 -7.2 19
00:25 1027 30.33 857 25.31 -4.4 24.1 80 -7.3 18.9
00:30 1028 30.36 857 25.31 -4.5 23.9 81 -7.3 18.9
00:35 1028 30.36 857 25.31 -4.7 23.5 82 -7.4 18.7
00:40 1028 30.36 857 25.31 -4.8 23.3 82 -7.5 18.5
00:45 1028 30.36 857 25.31 -4.9 23.1 82 -7.5 18.4
00:50 1028 30.36 857 25.31 -5.1 22.9 83 -7.5 18.5
00:55 1028 30.36 857 25.31 -5.1 22.7 84 -7.5 18.5
01:00 1028 30.36 857 25.31 -5.2 22.7 84 -7.5 18.5
01:05 1028 30.36 857 25.31 -5.2 22.6 84 -7.6 18.4
01:10 1028 30.36 857 25.31 -5.3 22.5 84 -7.6 18.4
01:15 1028 30.36 857 25.31 -5.4 22.4 84 -7.6 18.3
01:20 1028 30.36 857 25.31 -5.4 22.3 84 -7.7 18.1
01:25 1028 30.36 857 25.31 -5.4 22.4 84 -7.7 18.2
01:30 1028 30.36 857 25.31 -5.3 22.4 83 -7.8 18
01:35 1028 30.36 857 25.31 -5.4 22.3 84 -7.7 18.2
01:40 1028 30.36 857 25.31 -5.4 22.3 84 -7.7 18.2
01:45 1028 30.36 857 25.31 -5.4 22.2 84 -7.7 18.1
01:50 1028 30.36 857 25.31 -5.6 22 85 -7.8 18
01:55 1028 30.36 857 25.31 -5.7 21.7 85 -7.9 17.8
02:00 1028 30.36 857 25.31 -5.9 21.3 86 -8 17.7
02:05 1028 30.36 857 25.31 -6 21.2 86 -8 17.6
02:10 1028 30.36 857 25.31 -6 21.2 85 -8.1 17.5
02:15 1028 30.36 857 25.31 -6.2 20.9 86 -8.2 17.2
02:20 1028 30.36 857 25.31 -6.1 21 86 -8.1 17.3
02:25 1028 30.36 857 25.31 -6.1 20.9 86 -8.2 17.3
02:30 1028 30.36 857 25.31 -6.2 20.8 86 -8.2 17.2
02:35 1028 30.36 857 25.31 -6.4 20.5 86 -8.3 17
02:40 1028 30.36 857 25.31 -6.5 20.3 87 -8.4 16.9
02:45 1028 30.36 857 25.31 -6.5 20.2 87 -8.4 16.9
02:50 1028 30.36 857 25.31 -6.5 20.2 86 -8.4 16.8
02:55 1028 30.36 857 25.31 -6.6 20.2 87 -8.4 16.9
03:00 1028 30.36 857 25.31 -6.5 20.3 87 -8.3 17
03:05 1028 30.36 857 25.31 -6.4 20.4 87 -8.3 17
03:10 1028 30.36 857 25.31 -6.4 20.4 86 -8.4 16.9
03:15 1028 30.36 858 25.34 -6.6 20 86 -8.6 16.5
03:20 1028 30.36 858 25.34 -6.8 19.8 86 -8.7 16.3
03:25 1028 30.36 858 25.34 -6.7 19.9 86 -8.7 16.3
03:30 1028 30.36 858 25.34 -6.7 20 86 -8.7 16.3
03:35 1028 30.36 858 25.34 -6.8 19.8 85 -8.9 16.1
03:40 1028 30.36 858 25.34 -6.7 19.9 85 -8.9 16
03:45 1029 30.39 858 25.34 -6.8 19.8 84 -9 15.8
03:50 1029 30.39 858 25.34 -6.9 19.6 83 -9.2 15.4
03:55 1029 30.39 858 25.34 -7 19.4 83 -9.4 15.1
04:00 1029 30.39 858 25.34 -7.1 19.2 84 -9.3 15.2
04:05 1029 30.39 858 25.34 -7.2 19.1 83 -9.6 14.8
04:10 1029 30.39 858 25.34 -7.2 19 82 -9.9 14.3
04:15 1029 30.39 858 25.34 -7.2 19 80 -10.1 13.8
04:20 1029 30.39 858 25.34 -7.3 19 79 -10.3 13.4
04:25 1029 30.39 858 25.34 -7.4 18.7 79 -10.4 13.4
04:30 1029 30.39 858 25.34 -7.3 18.9 79 -10.3 13.4
04:35 1029 30.39 858 25.34 -7.3 18.9 80 -10.2 13.7
04:40 1029 30.39 858 25.34 -7.2 19 81 -9.9 14.1
04:45 1029 30.39 858 25.34 -7.1 19.3 81 -9.8 14.3
04:50 1029 30.39 858 25.34 -6.9 19.5 79 -9.9 14.1
04:55 1029 30.39 858 25.34 -6.9 19.6 79 -9.9 14.2
05:00 1029 30.39 858 25.34 -6.8 19.7 80 -9.8 14.4
05:05 1029 30.39 858 25.34 -6.8 19.8 81 -9.6 14.8
05:10 1029 30.39 858 25.34 -6.7 20 82 -9.3 15.3
05:15 1029 30.39 858 25.34 -6.4 20.5 80 -9.3 15.2
05:20 1029 30.39 858 25.34 -6.3 20.7 79 -9.4 15.1
05:25 1029 30.39 858 25.34 -6.4 20.6 78 -9.6 14.7
05:30 1029 30.39 858 25.34 -6.4 20.4 77 -9.9 14.3
05:35 1029 30.39 858 25.34 -6.4 20.5 76 -10 14.1
05:40 1029 30.39 858 25.34 -6.3 20.7 75 -10 14
05:45 1029 30.39 858 25.34 -6.3 20.7 76 -9.8 14.3
05:50 1029 30.39 859 25.37 -6.3 20.6 77 -9.7 14.5
05:55 1029 30.39 859 25.37 -6.3 20.6 77 -9.7 14.6
06:00 1029 30.39 859 25.37 -6.4 20.5 77 -9.8 14.3
06:05 1030 30.42 859 25.37 -6.3 20.7 77 -9.7 14.5
06:10 1030 30.42 859 25.37 -6.1 21.1 78 -9.3 15.2
06:15 1030 30.42 859 25.37 -5.8 21.5 77 -9.2 15.4
06:20 1030 30.42 859 25.37 -5.7 21.8 76 -9.2 15.4
06:25 1030 30.42 859 25.37 -5.8 21.6 76 -9.4 15.1
06:30 1030 30.42 859 25.37 -5.9 21.4 76 -9.5 15
06:35 1030 30.42 859 25.37 -5.9 21.3 75 -9.7 14.5
06:40 1030 30.42 859 25.37 -5.8 21.5 74 -9.7 14.6
06:45 1030 30.42 859 25.37 -5.8 21.6 75 -9.5 14.9
06:50 1030 30.42 859 25.37 -5.7 21.8 74 -9.6 14.6
06:55 1030 30.42 859 25.37 -5.6 22 73 -9.6 14.7
07:00 1030 30.42 859 25.37 -5.6 21.9 74 -9.6 14.7
07:05 1030 30.42 859 25.37 -5.7 21.7 75 -9.5 15
07:10 1030 30.42 859 25.37 -5.8 21.6 75 -9.6 14.7
07:15 1030 30.42 859 25.37 -5.8 21.6 73 -9.9 14.2
07:20 1030 30.42 859 25.37 -5.8 21.5 71 -10.3 13.5
07:25 1030 30.42 859 25.37 -6.1 21.1 71 -10.4 13.2
07:30 1030 30.42 859 25.37 -6.2 20.9 73 -10.2 13.7
07:35 1030 30.42 859 25.37 -6.2 20.8 74 -10.2 13.6
07:40 1030 30.42 859 25.37 -6.3 20.7 73 -10.3 13.5
07:45 1030 30.42 859 25.37 -6.3 20.6 72 -10.6 13
07:50 1030 30.42 859 25.37 -6.5 20.3 72 -10.8 12.6
07:55 1030 30.42 859 25.37 -6.5 20.3 70 -11.1 12
08:00 1030 30.42 859 25.37 -6.6 20 72 -10.8 12.5
08:05 1030 30.42 859 25.37 -6.7 19.9 72 -11 12.3
08:10 1030 30.42 859 25.37 -6.8 19.8 71 -11.1 12
08:15 1030 30.42 859 25.37 -6.9 19.6 70 -11.4 11.4
08:20 1030 30.42 859 25.37 -7.1 19.2 71 -11.6 11.1
08:25 1030 30.42 859 25.37 -7.5 18.6 73 -11.6 11.2
08:30 1030 30.42 859 25.37 -7.6 18.4 74 -11.4 11.4
08:35 1030 30.42 859 25.37 -8 17.6 77 -11.4 11.6
08:40 1030 30.42 859 25.37 -8.1 17.5 77 -11.4 11.5
08:45 1030 30.42 859 25.37 -8.2 17.2 77 -11.6 11.2
08:50 1030 30.42 859 25.37 -8.3 17.1 76 -11.8 10.8
08:55 1030 30.42 859 25.37 -8.2 17.2 77 -11.6 11.2
09:00 1030 30.42 859 25.37 -8.5 16.7 76 -11.9 10.6
09:05 1030 30.42 860 25.4 -8.8 16.2 76 -12.3 9.9
09:10 1030 30.42 860 25.4 -8.8 16.2 74 -12.6 9.4
09:15 1030 30.42 860 25.4 -8.5 16.8 73 -12.4 9.6
09:20 1030 30.42 860 25.4 -8.4 16.8 73 -12.5 9.5
09:25 1030 30.42 860 25.4 -8.4 16.9 75 -12.1 10.2
09:30 1030 30.42 860 25.4 -7.8 18 72 -12 10.4
09:35 1030 30.42 860 25.4 -8 17.5 73 -12 10.3
09:40 1030 30.42 859 25.37 -8.4 16.8 74 -12.3 9.8
09:45 1030 30.42 860 25.4 -8 17.5 73 -12 10.4
09:50 1030 30.42 860 25.4 -7.9 17.9 74 -11.8 10.8
09:55 1030 30.42 860 25.4 -7.6 18.3 73 -11.6 11.2
10:00 1031 30.45 860 25.4 -7.5 18.5 73 -11.5 11.3
10:05 1031 30.45 860 25.4 -7.5 18.6 73 -11.5 11.3
10:10 1031 30.45 860 25.4 -7.2 19 72 -11.4 11.5
10:15 1031 30.45 860 25.4 -6.9 19.6 72 -11.1 12
10:20 1031 30.45 860 25.4 -6.7 20 71 -11.2 11.9
10:25 1031 30.45 860 25.4 -6.5 20.3 71 -10.9 12.4
10:30 1031 30.45 860 25.4 -6.2 20.9 72 -10.5 13
10:35 1031 30.45 860 25.4 -6.1 21 71 -10.5 13.1
10:40 1031 30.45 860 25.4 -6.3 20.7 70 -10.9 12.4
10:45 1031 30.45 860 25.4 -6.3 20.7 70 -10.9 12.3
10:50 1031 30.45 860 25.4 -6.2 20.8 70 -10.8 12.5
10:55 1031 30.45 860 25.4 -6.2 20.8 70 -10.9 12.4
11:00 1031 30.45 860 25.4 -6 21.1 70 -10.7 12.8
11:05 1031 30.45 860 25.4 -5.8 21.5 71 -10.4 13.4
11:10 1031 30.45 860 25.4 -5.7 21.8 70 -10.2 13.6
11:15 1031 30.45 860 25.4 -5.5 22.1 70 -10.2 13.7
11:20 1031 30.45 860 25.4 -5.3 22.4 71 -9.9 14.2
11:25 1031 30.45 860 25.4 -4.8 23.4 70 -9.4 15.1
11:30 1031 30.45 860 25.4 -4.5 23.8 70 -9.1 15.6
11:35 1031 30.45 860 25.4 -4.2 24.4 71 -8.8 16.2
11:40 1031 30.45 860 25.4 -4.1 24.6 72 -8.4 16.9
11:45 1031 30.45 860 25.4 -3.8 25.1 71 -8.3 17.1
11:50 1031 30.45 860 25.4 -3.7 25.3 73 -8 17.7
11:55 1031 30.45 860 25.4 -3.4 25.8 71 -8 17.7
12:00 1031 30.45 860 25.4 -2.8 27 69 -7.8 18
12:05 1031 30.45 860 25.4 -2.8 27 68 -8 17.7
12:10 1031 30.45 860 25.4 -2.6 27.3 67 -7.9 17.8
12:15 1031 30.45 860 25.4 -2.2 28 66 -7.7 18.1
12:20 1030 30.42 859 25.37 -1.7 28.9 63 -7.9 17.9
12:25 1030 30.42 860 25.4 -1.4 29.5 63 -7.5 18.4
12:30 1030 30.42 859 25.37 -1.3 29.6 62 -7.6 18.3
12:35 1030 30.42 859 25.37 -0.9 30.4 60 -7.6 18.3
12:40 1030 30.42 859 25.37 -2.1 28.2 66 -7.6 18.3
12:45 1030 30.42 859 25.37 -2 28.3 65 -7.8 18
12:50 1030 30.42 859 25.37 -1.2 29.8 63 -7.4 18.6
12:55 1030 30.42 859 25.37 -1.2 29.8 62 -7.6 18.4
13:00 1030 30.42 859 25.37 -0.7 30.8 60 -7.5 18.6
13:05 1030 30.42 859 25.37 -0.8 30.6 60 -7.6 18.4
13:10 1029 30.39 859 25.37 -0.5 31.2 62 -6.9 19.7
13:15 1029 30.39 858 25.34 -1 30.2 61 -7.5 18.5
13:20 1029 30.39 859 25.37 -1 30.2 62 -7.4 18.6
13:25 1029 30.39 859 25.37 -0.7 30.7 61 -7.3 18.9
13:30 1029 30.39 859 25.37 -0.1 31.9 59 -7.2 19
13:35 1029 30.39 859 25.37 0.1 32.2 60 -6.8 19.7
13:40 1029 30.39 859 25.37 -0.3 31.5 60 -7 19.3
13:45 1030 30.42 859 25.37 -0.5 31.1 60 -7.3 18.8
13:50 1030 30.42 859 25.37 -0.4 31.3 61 -7 19.4
13:55 1029 30.39 859 25.37 -1.1 30.1 65 -6.8 19.7
14:00 1029 30.39 859 25.37 -2.1 28.2 67 -7.4 18.7
14:05 1029 30.39 858 25.34 -2.8 27 69 -7.7 18.2
14:10 1029 30.39 858 25.34 -3 26.6 71 -7.6 18.3
14:15 1029 30.39 858 25.34 -3 26.5 71 -7.6 18.4
14:20 1029 30.39 858 25.34 -3 26.6 70 -7.7 18.1
14:25 1029 30.39 858 25.34 -3.1 26.5 70 -7.8 17.9
14:30 1029 30.39 858 25.34 -2.8 27 69 -7.7 18.1
14:35 1029 30.39 858 25.34 -2.4 27.7 68 -7.6 18.3
14:40 1029 30.39 858 25.34 -2 28.3 67 -7.3 18.9
14:45 1029 30.39 858 25.34 -2.5 27.5 69 -7.5 18.5
14:50 1029 30.39 858 25.34 -2.5 27.5 67 -7.8 18
14:55 1029 30.39 858 25.34 -1.8 28.8 65 -7.4 18.6
15:00 1029 30.39 858 25.34 -1.3 29.6 64 -7.3 18.9
15:05 1029 30.39 858 25.34 -0.5 31.1 61 -7.1 19.3
15:10 1029 30.39 858 25.34 0 32 59 -7.1 19.2
15:15 1028 30.36 858 25.34 -0 31.9 60 -7 19.4
15:20 1028 30.36 858 25.34 -0.5 31.1 60 -7.4 18.8
15:25 1028 30.36 858 25.34 -0.4 31.3 60 -7.1 19.1
15:30 1028 30.36 857 25.31 -0.7 30.7 62 -7.2 19.1
15:35 1028 30.36 857 25.31 -0.4 31.2 62 -6.8 19.7
15:40 1028 30.36 857 25.31 -0.2 31.6 61 -7 19.5
15:45 1028 30.36 857 25.31 -0.1 31.8 59 -7.1 19.2
15:50 1028 30.36 857 25.31 0 32.1 59 -7.1 19.3
15:55 1028 30.36 857 25.31 0 32 59 -7.1 19.3
16:00 1028 30.36 857 25.31 0.2 32.4 57 -7.3 18.9
16:05 1028 30.36 857 25.31 0.6 33 56 -7.2 19.1
16:10 1028 30.36 857 25.31 0.1 32.2 59 -7 19.5
16:15 1028 30.36 857 25.31 -1.4 29.4 63 -7.6 18.4
16:20 1028 30.36 857 25.31 -1.8 28.8 63 -7.9 17.8
16:25 1028 30.36 857 25.31 -2 28.4 63 -8.1 17.4
16:30 1028 30.36 857 25.31 -1.5 29.2 63 -7.8 18
16:35 1028 30.36 857 25.31 -1.3 29.7 60 -8 17.5
16:40 1028 30.36 857 25.31 -1 30.3 60 -7.7 18.1
16:45 1028 30.36 857 25.31 -1.1 30.1 61 -7.8 18
16:50 1028 30.36 857 25.31 -1.2 29.8 61 -7.9 17.8
16:55 1028 30.36 857 25.31 -1.3 29.7 61 -7.8 18
17:00 1028 30.36 857 25.31 -1 30.3 61 -7.6 18.3
17:05 1028 30.36 857 25.31 -0.6 31 58 -7.8 18
17:10 1028 30.36 857 25.31 -0.3 31.4 59 -7.4 18.7
17:15 1028 30.36 857 25.31 -0.4 31.3 59 -7.4 18.7
17:20 1028 30.36 857 25.31 -0.6 30.9 59 -7.7 18.1
17:25 1028 30.36 857 25.31 -0.6 31 59 -7.6 18.4
17:30 1028 30.36 857 25.31 -0.6 30.8 59 -7.7 18.2
17:35 1028 30.36 857 25.31 -0.5 31.1 59 -7.5 18.4
17:40 1028 30.36 857 25.31 -0.6 30.9 60 -7.5 18.4
17:45 1028 30.36 857 25.31 -1.2 29.8 61 -7.8 18
17:50 1028 30.36 857 25.31 -1.1 29.9 61 -7.7 18.1
17:55 1028 30.36 857 25.31 -1.2 29.8 61 -7.9 17.8
18:00 1028 30.36 857 25.31 -1.1 30.1 61 -7.7 18.2
18:05 1028 30.36 857 25.31 -1.3 29.7 62 -7.7 18.1
18:10 1028 30.36 857 25.31 -1.7 29 64 -7.7 18.2
18:15 1028 30.36 857 25.31 -2.3 27.9 66 -7.7 18.1
18:20 1028 30.36 857 25.31 -2.8 27.1 68 -8 17.7
18:25 1028 30.36 857 25.31 -3 26.5 69 -8 17.6
18:30 1028 30.36 857 25.31 -3.1 26.4 68 -8.1 17.4
18:35 1028 30.36 857 25.31 -2.9 26.8 67 -8.1 17.4
18:40 1028 30.36 857 25.31 -3.1 26.5 67 -8.4 16.8
18:45 1028 30.36 857 25.31 -3 26.6 67 -8.2 17.2
18:50 1028 30.36 857 25.31 -3.3 26.1 68 -8.3 17
18:55 1028 30.36 857 25.31 -3.2 26.3 67 -8.4 16.8
19:00 1028 30.36 857 25.31 -3 26.6 66 -8.5 16.7
19:05 1028 30.36 857 25.31 -3 26.6 66 -8.6 16.6
19:10 1028 30.36 857 25.31 -3 26.7 66 -8.4 17
19:15 1028 30.36 857 25.31 -3.2 26.2 67 -8.5 16.8
19:20 1028 30.36 857 25.31 -3.5 25.6 68 -8.7 16.4
19:25 1028 30.36 857 25.31 -3.6 25.4 66 -9 15.7
19:30 1028 30.36 857 25.31 -3.4 26 64 -9.2 15.5
19:35 1028 30.36 857 25.31 -3.1 26.4 64 -9 15.7
19:40 1028 30.36 857 25.31 -3.2 26.3 64 -9 15.7
19:45 1028 30.36 857 25.31 -3.2 26.3 64 -9.1 15.5
19:50 1028 30.36 857 25.31 -3.3 26 66 -8.7 16.3
19:55 1028 30.36 857 25.31 -3.6 25.5 67 -8.8 16.2
20:00 1028 30.36 857 25.31 -3.5 25.8 66 -8.9 15.9
20:05 1028 30.36 857 25.31 -3.3 26 66 -8.9 16
20:10 1028 30.36 857 25.31 -3.4 26 68 -8.5 16.6
20:15 1028 30.36 857 25.31 -3.9 25 71 -8.3 17
20:20 1028 30.36 857 25.31 -4.3 24.2 73 -8.6 16.6
20:25 1028 30.36 857 25.31 -4.1 24.6 73 -8.3 17.1
20:30 1028 30.36 857 25.31 -4.1 24.7 73 -8.1 17.3
20:35 1028 30.36 858 25.34 -4.1 24.7 73 -8.3 17.1
20:40 1028 30.36 857 25.31 -4.1 24.6 73 -8.2 17.2
20:45 1028 30.36 857 25.31 -4 24.8 73 -8.2 17.3
20:50 1028 30.36 857 25.31 -4.4 24 74 -8.4 16.9
20:55 1028 30.36 858 25.34 -4.6 23.6 74 -8.6 16.6
21:00 1028 30.36 858 25.34 -4.7 23.6 75 -8.5 16.7
21:05 1029 30.39 858 25.34 -4.6 23.6 74 -8.6 16.6
21:10 1029 30.39 858 25.34 -4.4 24.1 73 -8.6 16.5
21:15 1029 30.39 858 25.34 -4.3 24.3 72 -8.5 16.7
21:20 1029 30.39 858 25.34 -4.2 24.5 73 -8.3 17
21:25 1029 30.39 858 25.34 -4 24.7 72 -8.3 17.1
21:30 1029 30.39 858 25.34 -4 24.7 72 -8.3 17.1
21:35 1029 30.39 858 25.34 -4.1 24.7 73 -8.3 17.1
21:40 1029 30.39 858 25.34 -3.9 25 71 -8.4 16.9
21:45 1029 30.39 858 25.34 -3.7 25.4 70 -8.4 16.8
21:50 1029 30.39 858 25.34 -3.7 25.3 71 -8.2 17.2
21:55 1029 30.39 858 25.34 -4.1 24.6 73 -8.2 17.2
22:00 1029 30.39 858 25.34 -4.5 23.9 74 -8.5 16.6
22:05 1029 30.39 858 25.34 -4.2 24.5 72 -8.4 16.8
22:10 1029 30.39 858 25.34 -3.9 25 71 -8.4 16.9
22:15 1029 30.39 858 25.34 -4 24.8 73 -8.2 17.2
22:20 1029 30.39 858 25.34 -4.2 24.5 73 -8.4 16.9
22:25 1029 30.39 858 25.34 -4.1 24.6 73 -8.2 17.2
22:30 1029 30.39 858 25.34 -4.2 24.4 74 -8.1 17.4
22:35 1029 30.39 858 25.34 -4.4 24.2 75 -8.1 17.3
22:40 1029 30.39 858 25.34 -4.4 24 76 -8.1 17.5
22:45 1029 30.39 858 25.34 -4.1 24.6 75 -8 17.7
22:50 1028 30.36 858 25.34 -3.6 25.5 72 -7.9 17.8
22:55 1028 30.36 858 25.34 -3.4 25.9 73 -7.5 18.5
23:00 1028 30.36 858 25.34 -3.3 26.1 74 -7.2 19
23:05 1028 30.36 858 25.34 -3.4 26 74 -7.3 18.9
23:10 1028 30.36 858 25.34 -3.5 25.7 74 -7.5 18.5
23:15 1029 30.39 858 25.34 -3.6 25.6 74 -7.5 18.5
23:20 1029 30.39 858 25.34 -3.5 25.7 74 -7.4 18.6
23:25 1029 30.39 858 25.34 -3.4 25.8 72 -7.7 18.1
23:30 1029 30.39 858 25.34 -3.1 26.4 72 -7.6 18.4
23:35 1029 30.39 858 25.34 -3.2 26.2 73 -7.4 18.7
23:40 1029 30.39 858 25.34 -3.7 25.3 75 -7.5 18.6
23:45 1029 30.39 858 25.34 -3.7 25.4 74 -7.7 18.1
23:50 1029 30.39 858 25.34 -3.1 26.5 65 -8.8 16.1
23:55 1029 30.39 858 25.34 -2.1 28.2 63 -8.1 17.3
24:00 1029 30.39 858 25.34 -2.2 28.1 64 -8.2 17.3